createdAt,value
2023-04-14T00:01:56.552Z,80.34
2023-04-14T00:04:24.857Z,80.58
2023-04-14T00:06:53.458Z,78.74
2023-04-14T00:09:21.472Z,79.44
2023-04-14T00:11:50.749Z,77.92
2023-04-14T00:14:19.033Z,76.78
2023-04-14T00:16:47.426Z,75.93
2023-04-14T00:19:17.381Z,75.51
2023-04-14T00:21:45.480Z,75.61
2023-04-14T00:24:13.501Z,76.07
2023-04-14T00:26:42.024Z,76.29
2023-04-14T00:29:10.409Z,76.52
2023-04-14T00:31:38.676Z,75.51
2023-04-14T00:34:06.765Z,75.55
2023-04-14T00:36:36.965Z,75.37
2023-04-14T00:39:05.770Z,76.27
2023-04-14T00:41:35.102Z,75.49
2023-04-14T00:44:03.134Z,75.26
2023-04-14T00:46:31.953Z,74.99
2023-04-14T00:49:00.615Z,75.14
2023-04-14T00:51:29.170Z,75.69
2023-04-14T00:53:59.816Z,75.71
2023-04-14T00:56:29.457Z,75.75
2023-04-14T00:58:57.515Z,75.63
2023-04-14T01:01:27.165Z,75.88
2023-04-14T01:03:56.876Z,76.07
2023-04-14T01:06:25.124Z,76.16
2023-04-14T01:08:53.349Z,76.09
2023-04-14T01:11:31.873Z,75.31
2023-04-14T01:14:10.050Z,74.97
2023-04-14T01:16:41.523Z,75.06
2023-04-14T01:19:30.993Z,75.93
2023-04-14T01:22:04.769Z,74.99
2023-04-14T01:24:59.282Z,75.70
2023-04-14T01:27:41.818Z,74.99
2023-04-14T01:30:30.647Z,75.72
2023-04-14T01:33:04.818Z,75.30
2023-04-14T01:35:38.092Z,75.61
2023-04-14T01:38:12.236Z,75.75
2023-04-14T01:40:43.469Z,75.88
2023-04-14T01:43:14.584Z,75.14
2023-04-14T01:45:50.398Z,75.35
2023-04-14T01:48:20.531Z,75.19
2023-04-14T01:50:50.147Z,75.58
2023-04-14T01:53:20.736Z,75.45
2023-04-14T01:55:50.708Z,74.85
2023-04-14T01:58:22.001Z,74.83
2023-04-14T02:00:52.871Z,74.43
2023-04-14T02:03:24.422Z,75.71
2023-04-14T02:05:55.570Z,75.33
2023-04-14T02:08:25.909Z,75.14
2023-04-14T02:10:56.236Z,75.62
2023-04-14T02:13:27.261Z,75.31
2023-04-14T02:15:58.742Z,76.00
2023-04-14T02:18:29.650Z,76.61
2023-04-14T02:21:00.743Z,76.46
2023-04-14T02:23:28.944Z,77.82
2023-04-14T02:26:13.207Z,77.14
2023-04-14T02:28:50.718Z,76.60
2023-04-14T02:31:23.978Z,76.55
2023-04-14T02:33:56.965Z,75.96
2023-04-14T02:36:32.518Z,76.30
2023-04-14T02:39:05.671Z,76.32
2023-04-14T02:41:35.789Z,77.20
2023-04-14T02:44:09.855Z,76.57
2023-04-14T02:46:42.798Z,76.77
2023-04-14T02:49:16.307Z,76.96
2023-04-14T02:51:46.766Z,77.08
2023-04-14T02:54:19.199Z,76.92
2023-04-14T02:56:50.070Z,76.89
2023-04-14T02:59:23.198Z,76.84
2023-04-14T03:01:59.854Z,76.63
2023-04-14T03:04:30.621Z,77.83
2023-04-14T03:07:00.583Z,77.98
2023-04-14T03:09:30.708Z,77.60
2023-04-14T03:12:00.692Z,77.12
2023-04-14T03:14:32.479Z,77.32
2023-04-14T03:17:02.164Z,76.96
2023-04-14T03:19:33.184Z,77.68
2023-04-14T03:22:03.913Z,76.59
2023-04-14T03:24:35.372Z,77.28
2023-04-14T03:27:06.517Z,76.36
2023-04-14T03:29:40.006Z,76.42
2023-04-14T03:32:11.605Z,75.44
2023-04-14T03:34:46.575Z,76.62
2023-04-14T03:37:19.280Z,76.64
2023-04-14T03:39:51.114Z,76.27
2023-04-14T03:42:21.155Z,76.34
2023-04-14T03:44:54.313Z,76.51
2023-04-14T03:47:24.528Z,76.14
2023-04-14T03:49:57.966Z,76.78
2023-04-14T03:52:30.453Z,76.93
2023-04-14T03:55:04.088Z,77.19
2023-04-14T03:57:33.501Z,77.00
2023-04-14T04:00:05.473Z,77.56
2023-04-14T04:02:42.495Z,77.89
2023-04-14T04:05:13.729Z,77.51
2023-04-14T04:07:43.298Z,77.53
2023-04-14T04:10:14.410Z,77.89
2023-04-14T04:12:44.074Z,77.52
2023-04-14T04:15:13.327Z,77.84
2023-04-14T04:17:44.363Z,77.64
2023-04-14T04:20:16.762Z,77.66
2023-04-14T04:22:49.852Z,77.89
2023-04-14T04:25:19.089Z,78.17
2023-04-14T04:27:55.724Z,77.92
2023-04-14T04:30:26.293Z,78.22
2023-04-14T04:32:54.894Z,77.71
2023-04-14T04:35:25.872Z,78.39
2023-04-14T04:37:55.524Z,78.57
2023-04-14T04:40:23.855Z,78.25
2023-04-14T04:42:53.388Z,78.43
2023-04-14T04:45:45.492Z,78.98
2023-04-14T04:48:14.263Z,78.59
2023-04-14T04:50:46.773Z,78.62
2023-04-14T04:53:15.069Z,79.24
2023-04-14T04:55:43.852Z,80.09
2023-04-14T04:58:12.110Z,80.69
2023-04-14T05:00:40.602Z,80.96
2023-04-14T05:03:09.206Z,80.70
2023-04-14T05:05:37.552Z,82.57
2023-04-14T05:08:07.950Z,82.93
2023-04-14T05:10:37.155Z,82.90
2023-04-14T05:13:05.627Z,83.62
2023-04-14T05:15:34.334Z,83.76
2023-04-14T05:18:03.020Z,84.33
2023-04-14T05:20:31.631Z,85.08
2023-04-14T05:23:00.790Z,84.94
2023-04-14T05:25:30.450Z,85.43
2023-04-14T05:27:58.874Z,85.37
2023-04-14T05:30:27.660Z,86.18
2023-04-14T05:32:56.208Z,86.64
2023-04-14T05:35:25.666Z,86.87
2023-04-14T05:37:53.982Z,87.47
2023-04-14T05:40:22.701Z,86.47
2023-04-14T05:42:53.609Z,86.81
2023-04-14T05:45:23.100Z,87.26
2023-04-14T05:47:51.528Z,87.67
2023-04-14T05:50:19.980Z,87.10
2023-04-14T05:52:48.195Z,87.61
2023-04-14T05:55:16.727Z,89.54
2023-04-14T05:57:45.304Z,89.98
2023-04-14T06:00:15.938Z,90.17
2023-04-14T06:02:45.063Z,89.91
2023-04-14T06:05:14.242Z,89.98
2023-04-14T06:07:43.317Z,90.40
2023-04-14T06:10:13.840Z,90.19
2023-04-14T06:12:42.291Z,89.95
2023-04-14T06:15:10.919Z,90.64
2023-04-14T06:17:42.015Z,90.57
2023-04-14T06:20:12.256Z,90.44
2023-04-14T06:22:40.616Z,91.60
2023-04-14T06:25:11.231Z,92.29
2023-04-14T06:27:39.919Z,92.03
2023-04-14T06:30:10.823Z,92.05
2023-04-14T06:32:40.906Z,92.14
2023-04-14T06:35:16.451Z,92.00
2023-04-14T06:37:51.767Z,92.52
2023-04-14T06:40:20.507Z,94.27
2023-04-14T06:42:48.554Z,94.06
2023-04-14T06:45:17.270Z,94.20
2023-04-14T06:47:47.277Z,94.89
2023-04-14T06:50:15.607Z,94.02
2023-04-14T06:53:09.547Z,94.44
2023-04-14T06:55:42.328Z,94.18
2023-04-14T06:58:10.442Z,94.88
2023-04-14T07:00:38.942Z,94.58
2023-04-14T07:03:29.087Z,94.71
2023-04-14T07:06:04.016Z,94.81
2023-04-14T07:08:34.881Z,93.98
2023-04-14T07:11:04.409Z,94.09
2023-04-14T07:13:33.800Z,94.38
2023-04-14T07:16:02.401Z,95.08
2023-04-14T07:18:33.071Z,95.10
2023-04-14T07:21:01.689Z,94.79
2023-04-14T07:23:30.152Z,95.15
2023-04-14T07:26:00.035Z,94.77
2023-04-14T07:28:29.556Z,94.82
2023-04-14T07:30:57.955Z,95.15
2023-04-14T07:33:27.178Z,95.31
2023-04-14T07:36:02.083Z,94.69
2023-04-14T07:38:32.461Z,94.62
2023-04-14T07:41:01.384Z,94.99
2023-04-14T07:43:35.139Z,95.31
2023-04-14T07:46:05.753Z,95.43
2023-04-14T07:48:35.344Z,95.02
2023-04-14T07:51:06.918Z,94.72
2023-04-14T07:53:40.734Z,95.43
2023-04-14T07:56:09.680Z,95.45
2023-04-14T07:58:38.265Z,95.20
2023-04-14T08:01:06.568Z,95.14
2023-04-14T08:03:36.597Z,95.99
2023-04-14T08:06:08.506Z,95.85
2023-04-14T08:08:37.293Z,96.18
2023-04-14T08:11:07.313Z,95.95
2023-04-14T08:13:35.778Z,96.21
2023-04-14T08:16:04.704Z,96.33
2023-04-14T08:18:32.956Z,96.91
2023-04-14T08:21:01.440Z,96.99
2023-04-14T08:23:31.711Z,96.77
2023-04-14T08:26:00.237Z,97.03
2023-04-14T08:28:31.277Z,97.42
2023-04-14T08:31:00.148Z,97.35
2023-04-14T08:33:28.804Z,96.57
2023-04-14T08:36:00.412Z,96.65
2023-04-14T08:38:29.417Z,96.38
2023-04-14T08:41:02.090Z,97.02
2023-04-14T08:43:31.117Z,97.28
2023-04-14T08:46:03.195Z,96.77
2023-04-14T08:48:33.144Z,96.21
2023-04-14T08:51:07.890Z,96.50
2023-04-14T08:53:43.830Z,96.54
2023-04-14T08:56:17.406Z,97.17
2023-04-14T08:58:47.437Z,95.61
2023-04-14T09:01:16.792Z,96.70
2023-04-14T09:03:46.046Z,96.54
2023-04-14T09:06:15.323Z,96.88
2023-04-14T09:08:44.648Z,96.64
2023-04-14T09:11:17.052Z,96.26
2023-04-14T09:13:46.228Z,96.54
2023-04-14T09:16:15.205Z,96.21
2023-04-14T09:18:43.803Z,95.94
2023-04-14T09:21:50.569Z,95.98
2023-04-14T09:24:07.305Z,95.83
2023-04-14T09:26:37.816Z,94.51
2023-04-14T09:29:06.226Z,95.89
2023-04-14T09:31:34.994Z,95.97
2023-04-14T09:34:03.976Z,95.60
2023-04-14T09:36:32.776Z,95.98
2023-04-14T09:39:01.068Z,96.14
2023-04-14T09:41:29.519Z,95.20
2023-04-14T09:44:08.337Z,95.05
2023-04-14T09:46:36.768Z,95.75
2023-04-14T09:49:07.209Z,95.81
2023-04-14T09:51:36.066Z,95.41
2023-04-14T09:54:07.049Z,96.13
2023-04-14T09:56:36.774Z,94.96
2023-04-14T09:59:07.741Z,95.24
2023-04-14T10:01:36.966Z,95.96
2023-04-14T10:04:05.222Z,95.72
2023-04-14T10:06:33.978Z,95.62
2023-04-14T10:09:04.198Z,95.29
2023-04-14T10:11:33.777Z,95.29
2023-04-14T10:14:04.203Z,95.58
2023-04-14T10:16:35.006Z,95.39
2023-04-14T10:19:04.788Z,94.37
2023-04-14T10:21:34.242Z,95.49
2023-04-14T10:24:03.447Z,95.50
2023-04-14T10:26:32.513Z,94.81
2023-04-14T10:29:02.599Z,94.88
2023-04-14T10:31:36.518Z,94.95
2023-04-14T10:34:11.150Z,94.44
2023-04-14T10:36:50.271Z,94.71
2023-04-14T10:39:25.316Z,94.89
2023-04-14T10:41:58.955Z,95.34
2023-04-14T10:44:35.399Z,95.40
2023-04-14T10:47:08.884Z,95.47
2023-04-14T10:49:41.420Z,95.89
2023-04-14T10:52:36.133Z,95.89
2023-04-14T10:55:12.331Z,95.68
2023-04-14T10:57:43.391Z,95.29
2023-04-14T11:00:25.383Z,95.38
2023-04-14T11:03:00.993Z,94.79
2023-04-14T11:05:29.243Z,93.93
2023-04-14T11:08:02.454Z,94.47
2023-04-14T11:10:34.450Z,95.39
2023-04-14T11:13:04.557Z,94.29
2023-04-14T11:15:49.747Z,94.98
2023-04-14T11:18:22.211Z,94.86
2023-04-14T11:20:53.255Z,95.08
2023-04-14T11:23:28.470Z,96.38
2023-04-14T11:25:58.203Z,96.04
2023-04-14T11:28:30.441Z,96.00
2023-04-14T11:30:59.841Z,96.34
2023-04-14T11:33:34.066Z,96.33
2023-04-14T11:36:03.528Z,96.53
2023-04-14T11:38:32.488Z,96.66
2023-04-14T11:41:02.922Z,96.53
2023-04-14T11:43:32.057Z,95.77
2023-04-14T11:46:02.235Z,96.24
2023-04-14T11:48:32.406Z,96.29
2023-04-14T11:51:03.869Z,96.20
2023-04-14T11:53:33.253Z,96.91
2023-04-14T11:56:01.667Z,96.42
2023-04-14T11:58:30.412Z,95.96
2023-04-14T12:00:58.951Z,96.10
2023-04-14T12:03:29.363Z,95.96
2023-04-14T12:06:01.704Z,96.29
2023-04-14T12:08:31.810Z,95.87
2023-04-14T12:11:02.646Z,95.74
2023-04-14T12:13:31.200Z,95.88
2023-04-14T12:16:00.417Z,95.57
2023-04-14T12:18:29.879Z,96.15
2023-04-14T12:21:06.349Z,95.25
2023-04-14T12:23:37.803Z,95.82
2023-04-14T12:26:13.648Z,95.72
2023-04-14T12:28:42.825Z,96.77
2023-04-14T12:31:12.106Z,97.04
2023-04-14T12:33:41.119Z,95.92
2023-04-14T12:36:14.263Z,96.53
2023-04-14T12:38:42.953Z,96.26
2023-04-14T12:41:12.183Z,96.24
2023-04-14T12:43:41.871Z,96.64
2023-04-14T12:46:10.288Z,96.56
2023-04-14T12:48:44.479Z,95.77
2023-04-14T12:51:16.212Z,96.72
2023-04-14T12:53:45.493Z,96.43
2023-04-14T12:56:16.096Z,96.18
2023-04-14T12:58:47.015Z,96.21
2023-04-14T13:01:17.089Z,95.96
2023-04-14T13:03:47.705Z,96.31
2023-04-14T13:06:18.890Z,95.85
2023-04-14T13:08:48.775Z,96.24
2023-04-14T13:11:18.906Z,96.48
2023-04-14T13:13:47.906Z,97.33
2023-04-14T13:16:19.497Z,97.02
2023-04-14T13:18:50.185Z,97.49
2023-04-14T13:21:19.786Z,97.99
2023-04-14T13:23:48.233Z,98.15
2023-04-14T13:26:16.795Z,97.79
2023-04-14T13:28:45.052Z,97.38
2023-04-14T13:31:18.507Z,96.42
2023-04-14T13:33:46.948Z,97.17
2023-04-14T13:36:15.751Z,96.47
2023-04-14T13:38:45.364Z,96.71
2023-04-14T13:41:15.461Z,96.39
2023-04-14T13:43:43.974Z,96.77
2023-04-14T13:46:12.808Z,96.41
2023-04-14T13:48:41.595Z,96.70
2023-04-14T13:51:09.826Z,96.64
2023-04-14T13:53:40.227Z,95.87
2023-04-14T13:56:10.676Z,95.99
2023-04-14T13:58:39.190Z,95.80
2023-04-14T14:01:11.906Z,96.33
2023-04-14T14:03:42.512Z,95.71
2023-04-14T14:06:11.233Z,96.00
2023-04-14T14:08:41.257Z,96.64
2023-04-14T14:11:11.944Z,96.89
2023-04-14T14:13:40.956Z,96.55
2023-04-14T14:16:10.685Z,97.47
2023-04-14T14:18:39.002Z,97.33
2023-04-14T14:21:07.278Z,97.27
2023-04-14T14:23:35.855Z,97.25
2023-04-14T14:26:04.289Z,97.51
2023-04-14T14:28:34.137Z,97.69
2023-04-14T14:31:03.378Z,97.48
2023-04-14T14:33:32.769Z,97.87
2023-04-14T14:36:01.343Z,97.34
2023-04-14T14:38:29.942Z,97.01
2023-04-14T14:40:58.268Z,97.29
2023-04-14T14:43:26.566Z,97.29
2023-04-14T14:45:56.310Z,97.50
2023-04-14T14:48:25.534Z,97.57
2023-04-14T14:50:53.639Z,98.26
2023-04-14T14:53:21.776Z,98.31
2023-04-14T14:55:50.216Z,98.01
2023-04-14T14:58:18.447Z,98.74
2023-04-14T15:00:46.901Z,99.04
2023-04-14T15:03:17.225Z,98.77
2023-04-14T15:05:46.568Z,98.96
2023-04-14T15:08:15.080Z,98.37
2023-04-14T15:10:43.273Z,98.00
2023-04-14T15:13:12.576Z,97.85
2023-04-14T15:15:40.990Z,98.34
2023-04-14T15:18:10.815Z,97.90
2023-04-14T15:20:42.881Z,98.01
2023-04-14T15:23:11.533Z,98.45
2023-04-14T15:25:40.158Z,98.54
2023-04-14T15:28:08.426Z,97.76
2023-04-14T15:30:36.558Z,97.93
2023-04-14T15:33:05.333Z,98.58
2023-04-14T15:35:36.915Z,98.77
2023-04-14T15:38:07.528Z,98.98
2023-04-14T15:40:36.442Z,98.84
2023-04-14T15:43:04.738Z,99.12
2023-04-14T15:45:43.250Z,99.27
2023-04-14T15:48:11.778Z,99.52
2023-04-14T15:50:44.920Z,99.69
2023-04-14T15:53:15.661Z,99.93
2023-04-14T15:55:44.578Z,100.00
2023-04-14T15:58:12.859Z,100.00
2023-04-14T16:01:07.853Z,100.00
2023-04-14T16:03:36.975Z,100.00
2023-04-14T16:06:07.253Z,100.00
2023-04-14T16:08:37.382Z,99.92
2023-04-14T16:11:05.775Z,100.00
2023-04-14T16:13:34.068Z,100.00
2023-04-14T16:16:02.848Z,100.00
2023-04-14T16:18:32.563Z,100.00
2023-04-14T16:21:01.257Z,100.00
2023-04-14T16:23:29.758Z,100.00
2023-04-14T16:25:59.996Z,100.00
2023-04-14T16:28:28.469Z,100.00
2023-04-14T16:31:00.429Z,100.00
2023-04-14T16:33:32.067Z,100.00
2023-04-14T16:36:04.219Z,100.00
2023-04-14T16:38:32.609Z,100.00
2023-04-14T16:41:03.539Z,100.00
2023-04-14T16:43:32.185Z,100.00
2023-04-14T16:46:04.411Z,100.00
2023-04-14T16:48:33.598Z,100.00
2023-04-14T16:51:05.838Z,100.00
2023-04-14T16:53:35.135Z,100.00
2023-04-14T16:56:06.380Z,100.00
2023-04-14T16:58:34.933Z,100.00
2023-04-14T17:01:03.452Z,100.00
2023-04-14T17:03:32.050Z,100.00
2023-04-14T17:06:01.191Z,100.00
2023-04-14T17:08:29.669Z,100.00
2023-04-14T17:10:58.202Z,100.00
2023-04-14T17:13:29.071Z,100.00
2023-04-14T17:16:07.671Z,100.00
2023-04-14T17:18:38.708Z,100.00
2023-04-14T17:21:07.781Z,100.00
2023-04-14T17:24:05.116Z,100.00
2023-04-14T17:26:33.993Z,100.00
2023-04-14T17:29:04.364Z,100.00
2023-04-14T17:31:35.429Z,100.00
2023-04-14T17:34:10.881Z,100.00
2023-04-14T17:36:41.003Z,100.00
2023-04-14T17:39:10.832Z,100.00
2023-04-14T17:41:39.448Z,100.00
2023-04-14T17:44:09.143Z,100.00
2023-04-14T17:46:37.669Z,100.00
2023-04-14T17:49:06.126Z,100.00
2023-04-14T17:51:34.683Z,100.00
2023-04-14T17:54:04.749Z,100.00
2023-04-14T17:56:33.317Z,100.00
2023-04-14T17:59:02.080Z,100.00
2023-04-14T18:01:32.161Z,100.00
2023-04-14T18:04:01.656Z,100.00
2023-04-14T18:06:34.572Z,100.00
2023-04-14T18:09:03.100Z,100.00
2023-04-14T18:11:31.920Z,100.00
2023-04-14T18:14:00.708Z,100.00
2023-04-14T18:16:30.155Z,100.00
2023-04-14T18:19:00.614Z,100.00
2023-04-14T18:21:29.742Z,100.00
2023-04-14T18:26:29.026Z,100.00
2023-04-14T18:28:57.420Z,100.00
2023-04-14T18:31:25.773Z,100.00
2023-04-14T18:33:54.035Z,100.00
2023-04-14T18:36:24.311Z,100.00
2023-04-14T18:38:52.764Z,100.00
2023-04-14T18:41:21.177Z,100.00
2023-04-14T18:43:49.864Z,100.00
2023-04-14T18:46:18.216Z,100.00
2023-04-14T18:48:46.365Z,100.00
2023-04-14T18:51:16.255Z,100.00
2023-04-14T18:53:46.952Z,100.00
2023-04-14T18:56:15.547Z,100.00
2023-04-14T18:58:43.931Z,100.00
2023-04-14T19:01:12.633Z,100.00
2023-04-14T19:03:41.274Z,100.00
2023-04-14T19:06:10.008Z,100.00
2023-04-14T19:08:38.445Z,100.00
2023-04-14T19:11:08.665Z,100.00
2023-04-14T19:13:39.274Z,100.00
2023-04-14T19:16:17.824Z,100.00
2023-04-14T19:18:47.744Z,100.00
2023-04-14T19:21:16.310Z,100.00
2023-04-14T19:23:45.814Z,100.00
2023-04-14T19:26:18.049Z,100.00
2023-04-14T19:28:46.650Z,100.00
2023-04-14T19:31:15.995Z,100.00
2023-04-14T19:33:45.472Z,100.00
2023-04-14T19:36:14.434Z,100.00
2023-04-14T19:38:42.923Z,100.00
2023-04-14T19:41:11.179Z,100.00
2023-04-14T19:43:42.378Z,100.00
2023-04-14T19:46:13.334Z,100.00
2023-04-14T19:48:41.745Z,100.00
2023-04-14T19:51:10.146Z,100.00
2023-04-14T19:53:38.724Z,100.00
2023-04-14T19:56:07.349Z,100.00
2023-04-14T19:58:36.477Z,100.00
2023-04-14T20:01:06.779Z,100.00
2023-04-14T20:03:35.249Z,100.00
2023-04-14T20:06:04.445Z,100.00
2023-04-14T20:08:33.279Z,100.00
2023-04-14T20:11:01.690Z,100.00
2023-04-14T20:13:32.280Z,100.00
2023-04-14T20:16:03.277Z,100.00
2023-04-14T20:18:34.933Z,100.00
2023-04-14T20:21:05.040Z,100.00
2023-04-14T20:23:33.339Z,100.00
2023-04-14T20:26:03.553Z,100.00
2023-04-14T20:28:31.978Z,100.00
2023-04-14T20:31:00.769Z,100.00
2023-04-14T20:33:29.589Z,100.00
2023-04-14T20:36:01.959Z,100.00
2023-04-14T20:38:30.612Z,100.00
2023-04-14T20:40:59.367Z,100.00
2023-04-14T20:43:34.028Z,100.00
2023-04-14T20:46:04.269Z,100.00
2023-04-14T20:48:33.029Z,100.00
2023-04-14T20:51:04.254Z,100.00
2023-04-14T20:53:32.697Z,100.00
2023-04-14T20:56:01.171Z,100.00
2023-04-14T20:58:30.021Z,100.00
2023-04-14T21:00:58.516Z,100.00
2023-04-14T21:03:27.923Z,100.00
2023-04-14T21:05:56.485Z,100.00
2023-04-14T21:08:27.386Z,100.00
2023-04-14T21:11:15.869Z,100.00
2023-04-14T21:15:44.117Z,100.00
2023-04-14T21:16:32.814Z,100.00
2023-04-14T21:19:02.576Z,100.00
2023-04-14T21:21:40.624Z,100.00
2023-04-14T21:24:10.596Z,100.00
2023-04-14T21:26:38.695Z,100.00
2023-04-14T21:29:06.863Z,100.00
2023-04-14T21:31:35.824Z,100.00
2023-04-14T21:34:04.566Z,100.00
2023-04-14T21:36:33.248Z,100.00
2023-04-14T21:39:01.757Z,100.00
2023-04-14T21:41:32.803Z,100.00
2023-04-14T21:44:01.728Z,100.00
2023-04-14T21:46:30.671Z,100.00
2023-04-14T21:48:59.284Z,100.00
2023-04-14T21:51:27.607Z,100.00
2023-04-14T21:53:55.997Z,100.00
2023-04-14T21:56:24.705Z,100.00
2023-04-14T21:58:54.580Z,100.00
2023-04-14T22:01:23.781Z,100.00
2023-04-14T22:03:52.372Z,100.00
2023-04-14T22:06:21.660Z,100.00
2023-04-14T22:08:50.294Z,100.00
2023-04-14T22:11:20.790Z,100.00
2023-04-14T22:13:50.479Z,100.00
2023-04-14T22:16:20.232Z,100.00
2023-04-14T22:18:49.375Z,100.00
2023-04-14T22:21:18.084Z,100.00
2023-04-14T22:23:46.810Z,100.00
2023-04-14T22:26:15.465Z,100.00
2023-04-14T22:28:43.595Z,100.00
2023-04-14T22:31:11.812Z,100.00
2023-04-14T22:33:41.977Z,100.00
2023-04-14T22:36:10.270Z,100.00
2023-04-14T22:38:38.636Z,100.00
2023-04-14T22:41:07.906Z,100.00
2023-04-14T22:43:36.325Z,100.00
2023-04-14T22:46:04.711Z,100.00
2023-04-14T22:48:33.372Z,100.00
2023-04-14T22:51:03.239Z,100.00
2023-04-14T22:53:31.526Z,100.00
2023-04-14T22:55:59.941Z,100.00
2023-04-14T22:58:32.083Z,100.00
2023-04-14T23:01:04.498Z,100.00
2023-04-14T23:03:38.005Z,100.00
2023-04-14T23:06:08.325Z,100.00
2023-04-14T23:08:36.674Z,100.00
2023-04-14T23:11:05.263Z,100.00
2023-04-14T23:13:33.524Z,100.00
2023-04-14T23:16:01.748Z,100.00
2023-04-14T23:18:30.004Z,100.00
2023-04-14T23:20:58.860Z,100.00
2023-04-14T23:23:28.906Z,100.00
2023-04-14T23:25:57.770Z,100.00
2023-04-14T23:28:26.111Z,100.00
2023-04-14T23:30:54.261Z,100.00
2023-04-14T23:33:22.647Z,100.00
2023-04-14T23:35:51.172Z,100.00
2023-04-14T23:38:19.604Z,100.00
2023-04-14T23:40:49.367Z,100.00
2023-04-14T23:43:17.862Z,100.00
2023-04-14T23:45:46.344Z,100.00
2023-04-14T23:48:14.472Z,100.00
2023-04-14T23:50:58.682Z,100.00
2023-04-14T23:53:30.527Z,100.00
2023-04-14T23:56:00.375Z,100.00
2023-04-14T23:58:30.213Z,100.00
